sensor_id;sensor_type;location;lat;lon;timestamp;pressure;altitude;pressure_sealevel;temperature;humidity
60015;BME280;45867;52.480;6.056;2023-04-27T00:00:29;102053.47;;;-0.56;100.00
60015;BME280;45867;52.480;6.056;2023-04-27T00:02:54;102071.69;;;-0.56;100.00
60015;BME280;45867;52.480;6.056;2023-04-27T00:05:20;102056.25;;;-0.65;100.00
60015;BME280;45867;52.480;6.056;2023-04-27T00:07:45;102045.16;;;-0.76;100.00
60015;BME280;45867;52.480;6.056;2023-04-27T00:10:10;102035.41;;;-0.74;100.00
60015;BME280;45867;52.480;6.056;2023-04-27T00:12:36;102079.50;;;-0.48;100.00
60015;BME280;45867;52.480;6.056;2023-04-27T00:15:02;102052.19;;;-0.52;100.00
60015;BME280;45867;52.480;6.056;2023-04-27T00:17:28;102057.38;;;-0.52;100.00
60015;BME280;45867;52.480;6.056;2023-04-27T00:19:53;102056.72;;;-0.46;100.00
60015;BME280;45867;52.480;6.056;2023-04-27T00:22:20;102051.84;;;-0.49;100.00
60015;BME280;45867;52.480;6.056;2023-04-27T00:24:45;102044.50;;;-0.70;100.00
60015;BME280;45867;52.480;6.056;2023-04-27T00:27:11;102051.16;;;-0.83;100.00
60015;BME280;45867;52.480;6.056;2023-04-27T00:29:38;102050.81;;;-0.88;100.00
60015;BME280;45867;52.480;6.056;2023-04-27T00:32:09;102077.06;;;-0.74;100.00
60015;BME280;45867;52.480;6.056;2023-04-27T00:34:35;102066.13;;;-0.85;100.00
60015;BME280;45867;52.480;6.056;2023-04-27T00:37:01;102042.84;;;-1.03;100.00
60015;BME280;45867;52.480;6.056;2023-04-27T00:39:27;102043.16;;;-1.06;100.00
60015;BME280;45867;52.480;6.056;2023-04-27T00:41:52;102070.03;;;-0.90;100.00
60015;BME280;45867;52.480;6.056;2023-04-27T00:44:22;102069.88;;;-0.80;100.00
60015;BME280;45867;52.480;6.056;2023-04-27T00:46:48;102048.41;;;-0.90;100.00
60015;BME280;45867;52.480;6.056;2023-04-27T00:49:14;102043.00;;;-0.88;100.00
60015;BME280;45867;52.480;6.056;2023-04-27T00:51:39;102057.50;;;-0.86;100.00
60015;BME280;45867;52.480;6.056;2023-04-27T00:54:05;102049.22;;;-0.90;100.00
60015;BME280;45867;52.480;6.056;2023-04-27T00:56:33;102050.34;;;-0.92;100.00
60015;BME280;45867;52.480;6.056;2023-04-27T00:58:59;102031.13;;;-0.99;100.00
60015;BME280;45867;52.480;6.056;2023-04-27T01:01:27;102023.97;;;-0.97;100.00
60015;BME280;45867;52.480;6.056;2023-04-27T01:03:53;102053.63;;;-0.74;100.00
60015;BME280;45867;52.480;6.056;2023-04-27T01:06:19;102029.19;;;-0.89;100.00
60015;BME280;45867;52.480;6.056;2023-04-27T01:08:44;102039.41;;;-0.96;100.00
60015;BME280;45867;52.480;6.056;2023-04-27T01:11:10;102034.03;;;-1.02;100.00
60015;BME280;45867;52.480;6.056;2023-04-27T01:13:36;102040.34;;;-1.13;100.00
60015;BME280;45867;52.480;6.056;2023-04-27T01:16:01;102043.91;;;-1.30;100.00
60015;BME280;45867;52.480;6.056;2023-04-27T01:18:27;102069.25;;;-1.24;100.00
60015;BME280;45867;52.480;6.056;2023-04-27T01:20:52;102036.97;;;-1.48;100.00
60015;BME280;45867;52.480;6.056;2023-04-27T01:23:17;102056.06;;;-1.39;100.00
60015;BME280;45867;52.480;6.056;2023-04-27T01:25:43;102049.50;;;-1.51;100.00
60015;BME280;45867;52.480;6.056;2023-04-27T01:28:09;102074.56;;;-1.34;100.00
60015;BME280;45867;52.480;6.056;2023-04-27T01:30:36;102056.78;;;-1.55;100.00
60015;BME280;45867;52.480;6.056;2023-04-27T01:33:02;102039.34;;;-1.71;100.00
60015;BME280;45867;52.480;6.056;2023-04-27T01:35:28;102054.22;;;-1.47;100.00
60015;BME280;45867;52.480;6.056;2023-04-27T01:37:53;102064.16;;;-1.42;100.00
60015;BME280;45867;52.480;6.056;2023-04-27T01:40:18;102054.19;;;-1.55;100.00
60015;BME280;45867;52.480;6.056;2023-04-27T01:42:44;102046.84;;;-1.60;100.00
60015;BME280;45867;52.480;6.056;2023-04-27T01:45:10;102067.88;;;-1.45;100.00
60015;BME280;45867;52.480;6.056;2023-04-27T01:47:35;102058.38;;;-1.62;100.00
60015;BME280;45867;52.480;6.056;2023-04-27T01:50:01;102059.19;;;-1.62;100.00
60015;BME280;45867;52.480;6.056;2023-04-27T01:52:26;102045.84;;;-1.67;100.00
60015;BME280;45867;52.480;6.056;2023-04-27T01:54:52;102057.75;;;-1.56;100.00
60015;BME280;45867;52.480;6.056;2023-04-27T01:57:20;102049.31;;;-1.58;100.00
60015;BME280;45867;52.480;6.056;2023-04-27T01:59:45;102050.09;;;-1.66;100.00
60015;BME280;45867;52.480;6.056;2023-04-27T02:02:10;102048.75;;;-1.70;100.00
60015;BME280;45867;52.480;6.056;2023-04-27T02:04:36;102048.16;;;-1.90;100.00
60015;BME280;45867;52.480;6.056;2023-04-27T02:07:01;102039.50;;;-1.98;100.00
60015;BME280;45867;52.480;6.056;2023-04-27T02:09:27;102064.56;;;-1.89;100.00
60015;BME280;45867;52.480;6.056;2023-04-27T02:11:53;102041.88;;;-2.05;100.00
60015;BME280;45867;52.480;6.056;2023-04-27T02:14:20;102059.94;;;-2.04;100.00
60015;BME280;45867;52.480;6.056;2023-04-27T02:16:46;102045.28;;;-2.13;100.00
60015;BME280;45867;52.480;6.056;2023-04-27T02:19:11;102040.19;;;-1.96;100.00
60015;BME280;45867;52.480;6.056;2023-04-27T02:21:38;102053.59;;;-1.75;100.00
60015;BME280;45867;52.480;6.056;2023-04-27T02:24:04;102039.97;;;-1.77;100.00
60015;BME280;45867;52.480;6.056;2023-04-27T02:26:30;102030.34;;;-1.85;100.00
60015;BME280;45867;52.480;6.056;2023-04-27T02:28:57;102034.75;;;-1.77;100.00
60015;BME280;45867;52.480;6.056;2023-04-27T02:31:23;102031.31;;;-1.77;100.00
60015;BME280;45867;52.480;6.056;2023-04-27T02:33:49;102044.53;;;-1.71;100.00
60015;BME280;45867;52.480;6.056;2023-04-27T02:36:14;102046.47;;;-1.73;100.00
60015;BME280;45867;52.480;6.056;2023-04-27T02:38:39;102027.91;;;-1.78;100.00
60015;BME280;45867;52.480;6.056;2023-04-27T02:41:05;102030.56;;;-1.70;100.00
60015;BME280;45867;52.480;6.056;2023-04-27T02:43:30;102031.69;;;-1.72;100.00
60015;BME280;45867;52.480;6.056;2023-04-27T02:45:56;102033.69;;;-1.66;100.00
60015;BME280;45867;52.480;6.056;2023-04-27T02:48:21;102027.81;;;-1.68;100.00
60015;BME280;45867;52.480;6.056;2023-04-27T02:50:46;102010.25;;;-1.74;100.00
60015;BME280;45867;52.480;6.056;2023-04-27T02:53:12;102033.06;;;-1.60;100.00
60015;BME280;45867;52.480;6.056;2023-04-27T02:55:38;102020.16;;;-1.70;100.00
60015;BME280;45867;52.480;6.056;2023-04-27T02:58:09;102033.09;;;-1.52;100.00
60015;BME280;45867;52.480;6.056;2023-04-27T03:00:34;102002.94;;;-1.71;100.00
60015;BME280;45867;52.480;6.056;2023-04-27T03:03:00;101987.22;;;-1.61;100.00
60015;BME280;45867;52.480;6.056;2023-04-27T03:05:25;101989.53;;;-1.58;100.00
60015;BME280;45867;52.480;6.056;2023-04-27T03:07:53;101985.13;;;-1.58;100.00
60015;BME280;45867;52.480;6.056;2023-04-27T03:10:18;101991.97;;;-1.48;100.00
60015;BME280;45867;52.480;6.056;2023-04-27T03:12:43;101978.00;;;-1.55;100.00
60015;BME280;45867;52.480;6.056;2023-04-27T03:15:09;101979.13;;;-1.58;100.00
60015;BME280;45867;52.480;6.056;2023-04-27T03:17:35;101990.75;;;-1.70;100.00
60015;BME280;45867;52.480;6.056;2023-04-27T03:20:00;102003.91;;;-1.80;100.00
60015;BME280;45867;52.480;6.056;2023-04-27T03:22:25;101999.91;;;-1.92;100.00
60015;BME280;45867;52.480;6.056;2023-04-27T03:24:51;101996.66;;;-1.94;100.00
60015;BME280;45867;52.480;6.056;2023-04-27T03:27:16;101991.31;;;-1.93;100.00
60015;BME280;45867;52.480;6.056;2023-04-27T03:29:41;101979.44;;;-1.95;100.00
60015;BME280;45867;52.480;6.056;2023-04-27T03:32:10;101993.56;;;-1.98;100.00
60015;BME280;45867;52.480;6.056;2023-04-27T03:34:35;102013.88;;;-1.93;100.00
60015;BME280;45867;52.480;6.056;2023-04-27T03:37:01;102032.44;;;-1.88;100.00
60015;BME280;45867;52.480;6.056;2023-04-27T03:39:26;102025.72;;;-1.99;100.00
60015;BME280;45867;52.480;6.056;2023-04-27T03:41:54;102029.75;;;-2.05;100.00
60015;BME280;45867;52.480;6.056;2023-04-27T03:44:20;102017.28;;;-2.19;100.00
60015;BME280;45867;52.480;6.056;2023-04-27T03:46:45;102030.31;;;-2.11;100.00
60015;BME280;45867;52.480;6.056;2023-04-27T03:49:11;102023.22;;;-2.27;100.00
60015;BME280;45867;52.480;6.056;2023-04-27T03:51:36;102007.59;;;-2.35;100.00
60015;BME280;45867;52.480;6.056;2023-04-27T03:54:04;102011.69;;;-2.32;100.00
60015;BME280;45867;52.480;6.056;2023-04-27T03:56:30;102023.47;;;-2.20;100.00
60015;BME280;45867;52.480;6.056;2023-04-27T03:58:58;102033.41;;;-2.15;100.00
60015;BME280;45867;52.480;6.056;2023-04-27T04:01:23;102023.84;;;-2.33;100.00
60015;BME280;45867;52.480;6.056;2023-04-27T04:03:49;102031.88;;;-2.26;100.00
60015;BME280;45867;52.480;6.056;2023-04-27T04:06:15;102033.34;;;-2.24;100.00
60015;BME280;45867;52.480;6.056;2023-04-27T04:08:44;102034.28;;;-2.25;100.00
60015;BME280;45867;52.480;6.056;2023-04-27T04:11:10;102052.16;;;-2.21;100.00
60015;BME280;45867;52.480;6.056;2023-04-27T04:13:35;102030.75;;;-2.24;100.00
60015;BME280;45867;52.480;6.056;2023-04-27T04:16:06;102036.13;;;-2.17;100.00
60015;BME280;45867;52.480;6.056;2023-04-27T04:18:38;102040.31;;;-1.98;100.00
60015;BME280;45867;52.480;6.056;2023-04-27T04:21:22;102052.06;;;-1.86;100.00
60015;BME280;45867;52.480;6.056;2023-04-27T04:23:48;102030.53;;;-2.04;100.00
60015;BME280;45867;52.480;6.056;2023-04-27T04:26:17;102043.91;;;-1.99;100.00
60015;BME280;45867;52.480;6.056;2023-04-27T04:28:45;102024.31;;;-2.11;100.00
60015;BME280;45867;52.480;6.056;2023-04-27T04:31:10;102014.09;;;-2.13;100.00
60015;BME280;45867;52.480;6.056;2023-04-27T04:33:37;102047.66;;;-1.93;100.00
60015;BME280;45867;52.480;6.056;2023-04-27T04:36:03;102018.88;;;-2.00;100.00
60015;BME280;45867;52.480;6.056;2023-04-27T04:38:29;102050.34;;;-1.77;100.00
60015;BME280;45867;52.480;6.056;2023-04-27T04:40:54;102041.84;;;-1.87;100.00
60015;BME280;45867;52.480;6.056;2023-04-27T04:43:19;102041.31;;;-1.99;100.00
60015;BME280;45867;52.480;6.056;2023-04-27T04:45:45;102046.53;;;-1.91;100.00
60015;BME280;45867;52.480;6.056;2023-04-27T04:48:15;102041.69;;;-1.86;100.00
60015;BME280;45867;52.480;6.056;2023-04-27T04:50:40;102041.13;;;-1.71;100.00
60015;BME280;45867;52.480;6.056;2023-04-27T04:53:09;102028.47;;;-1.66;100.00
60015;BME280;45867;52.480;6.056;2023-04-27T04:55:34;102047.03;;;-1.53;100.00
60015;BME280;45867;52.480;6.056;2023-04-27T04:58:03;102033.06;;;-1.60;100.00
60015;BME280;45867;52.480;6.056;2023-04-27T05:00:28;102037.47;;;-1.52;100.00
60015;BME280;45867;52.480;6.056;2023-04-27T05:02:54;102034.56;;;-1.49;100.00
60015;BME280;45867;52.480;6.056;2023-04-27T05:05:22;102047.94;;;-1.36;100.00
60015;BME280;45867;52.480;6.056;2023-04-27T05:07:48;102035.09;;;-1.38;100.00
60015;BME280;45867;52.480;6.056;2023-04-27T05:10:16;102042.78;;;-1.20;100.00
60015;BME280;45867;52.480;6.056;2023-04-27T05:12:41;102052.38;;;-1.12;100.00
60015;BME280;45867;52.480;6.056;2023-04-27T05:15:09;102042.50;;;-1.08;100.00
60015;BME280;45867;52.480;6.056;2023-04-27T05:17:34;102059.28;;;-0.95;100.00
60015;BME280;45867;52.480;6.056;2023-04-27T05:20:00;102053.25;;;-0.95;100.00
60015;BME280;45867;52.480;6.056;2023-04-27T05:22:46;102051.81;;;-0.90;100.00
60015;BME280;45867;52.480;6.056;2023-04-27T05:45:47;102062.03;;;2.78;100.00
60015;BME280;45867;52.480;6.056;2023-04-27T05:52:29;102049.19;;;3.97;100.00
60015;BME280;45867;52.480;6.056;2023-04-27T06:10:41;102025.63;;;6.97;100.00
60015;BME280;45867;52.480;6.056;2023-04-27T06:13:57;102032.44;;;7.36;100.00
60015;BME280;45867;52.480;6.056;2023-04-27T06:17:39;102032.00;;;7.46;100.00
60015;BME280;45867;52.480;6.056;2023-04-27T06:24:28;102093.44;;;8.21;100.00
60015;BME280;45867;52.480;6.056;2023-04-27T06:44:52;102167.72;;;9.66;100.00
60015;BME280;45867;52.480;6.056;2023-04-27T06:47:58;102159.88;;;9.71;100.00
60015;BME280;45867;52.480;6.056;2023-04-27T06:51:06;102171.34;;;10.07;100.00
60015;BME280;45867;52.480;6.056;2023-04-27T06:54:14;102161.69;;;10.36;100.00
60015;BME280;45867;52.480;6.056;2023-04-27T06:57:25;102150.38;;;10.64;100.00
60015;BME280;45867;52.480;6.056;2023-04-27T07:03:43;102183.13;;;10.34;100.00
60015;BME280;45867;52.480;6.056;2023-04-27T07:09:47;102159.78;;;11.12;100.00
60015;BME280;45867;52.480;6.056;2023-04-27T07:12:33;102159.19;;;11.22;100.00
60015;BME280;45867;52.480;6.056;2023-04-27T07:14:59;102173.25;;;10.82;100.00
60015;BME280;45867;52.480;6.056;2023-04-27T07:17:47;102180.41;;;11.22;100.00
60015;BME280;45867;52.480;6.056;2023-04-27T07:20:32;102171.25;;;11.01;100.00
60015;BME280;45867;52.480;6.056;2023-04-27T07:22:57;102178.06;;;10.97;100.00
60015;BME280;45867;52.480;6.056;2023-04-27T07:25:40;102156.47;;;11.05;100.00
60015;BME280;45867;52.480;6.056;2023-04-27T07:32:08;102184.72;;;12.02;100.00
60015;BME280;45867;52.480;6.056;2023-04-27T07:35:16;102198.13;;;12.85;100.00
60015;BME280;45867;52.480;6.056;2023-04-27T07:38:29;102184.47;;;13.03;100.00
60015;BME280;45867;52.480;6.056;2023-04-27T07:44:55;102195.56;;;13.71;100.00
60015;BME280;45867;52.480;6.056;2023-04-27T07:47:51;102208.44;;;13.52;100.00
60015;BME280;45867;52.480;6.056;2023-04-27T07:53:47;102198.91;;;14.69;95.96
60015;BME280;45867;52.480;6.056;2023-04-27T07:56:15;102208.91;;;12.78;97.88
60015;BME280;45867;52.480;6.056;2023-04-27T07:58:45;102203.59;;;13.76;100.00
60015;BME280;45867;52.480;6.056;2023-04-27T08:01:13;102195.84;;;14.50;93.32
60015;BME280;45867;52.480;6.056;2023-04-27T08:03:48;102207.94;;;15.46;86.86
60015;BME280;45867;52.480;6.056;2023-04-27T08:06:24;102207.25;;;14.87;80.76
60015;BME280;45867;52.480;6.056;2023-04-27T08:08:52;102211.47;;;15.67;82.58
60015;BME280;45867;52.480;6.056;2023-04-27T08:11:38;102219.25;;;15.84;73.67
60015;BME280;45867;52.480;6.056;2023-04-27T08:14:06;102200.50;;;15.63;77.21
60015;BME280;45867;52.480;6.056;2023-04-27T08:16:43;102206.13;;;14.31;72.03
60015;BME280;45867;52.480;6.056;2023-04-27T08:19:11;102218.31;;;13.08;82.44
60015;BME280;45867;52.480;6.056;2023-04-27T08:21:50;102217.84;;;15.50;84.28
60015;BME280;45867;52.480;6.056;2023-04-27T08:24:16;102204.13;;;15.06;72.39
60015;BME280;45867;52.480;6.056;2023-04-27T08:26:53;102199.44;;;16.05;73.29
60015;BME280;45867;52.480;6.056;2023-04-27T08:29:18;102209.06;;;16.27;62.27
60015;BME280;45867;52.480;6.056;2023-04-27T08:31:44;102206.28;;;15.19;65.76
60015;BME280;45867;52.480;6.056;2023-04-27T08:34:09;102215.19;;;15.56;66.95
60015;BME280;45867;52.480;6.056;2023-04-27T08:36:37;102216.19;;;14.56;66.41
60015;BME280;45867;52.480;6.056;2023-04-27T08:39:13;102221.81;;;14.64;65.67
60015;BME280;45867;52.480;6.056;2023-04-27T08:41:58;102204.25;;;15.98;64.69
60015;BME280;45867;52.480;6.056;2023-04-27T08:44:24;102213.31;;;16.38;55.43
60015;BME280;45867;52.480;6.056;2023-04-27T08:46:58;102205.78;;;15.38;52.18
60015;BME280;45867;52.480;6.056;2023-04-27T08:49:32;102206.91;;;14.26;53.76
60015;BME280;45867;52.480;6.056;2023-04-27T08:52:02;102205.28;;;14.62;52.62
60015;BME280;45867;52.480;6.056;2023-04-27T08:54:30;102213.91;;;15.89;55.83
60015;BME280;45867;52.480;6.056;2023-04-27T08:57:10;102214.94;;;17.53;54.80
60015;BME280;45867;52.480;6.056;2023-04-27T08:59:41;102217.47;;;18.85;48.08
60015;BME280;45867;52.480;6.056;2023-04-27T09:02:19;102212.53;;;16.22;44.37
60015;BME280;45867;52.480;6.056;2023-04-27T09:04:51;102209.63;;;18.41;46.20
60015;BME280;45867;52.480;6.056;2023-04-27T09:07:25;102226.53;;;18.90;44.05
60015;BME280;45867;52.480;6.056;2023-04-27T09:10:02;102203.50;;;16.93;40.83
60015;BME280;45867;52.480;6.056;2023-04-27T09:12:32;102196.31;;;18.55;45.79
60015;BME280;45867;52.480;6.056;2023-04-27T09:15:04;102199.19;;;20.51;40.42
60015;BME280;45867;52.480;6.056;2023-04-27T09:17:33;102208.97;;;20.20;38.75
60015;BME280;45867;52.480;6.056;2023-04-27T09:20:17;102203.78;;;20.92;37.85
60015;BME280;45867;52.480;6.056;2023-04-27T09:22:43;102216.19;;;20.66;36.29
60015;BME280;45867;52.480;6.056;2023-04-27T09:25:32;102197.25;;;21.07;37.26
60015;BME280;45867;52.480;6.056;2023-04-27T09:28:06;102193.56;;;19.79;33.37
60015;BME280;45867;52.480;6.056;2023-04-27T09:30:35;102194.16;;;18.81;38.50
60015;BME280;45867;52.480;6.056;2023-04-27T09:33:01;102211.34;;;20.49;38.25
60015;BME280;45867;52.480;6.056;2023-04-27T09:35:34;102213.16;;;20.26;35.21
60015;BME280;45867;52.480;6.056;2023-04-27T09:38:01;102190.03;;;19.45;35.53
60015;BME280;45867;52.480;6.056;2023-04-27T09:40:28;102198.13;;;20.66;35.23
60015;BME280;45867;52.480;6.056;2023-04-27T09:42:56;102200.88;;;20.89;35.20
60015;BME280;45867;52.480;6.056;2023-04-27T09:45:23;102178.22;;;21.03;34.35
60015;BME280;45867;52.480;6.056;2023-04-27T09:47:52;102198.88;;;21.44;35.57
60015;BME280;45867;52.480;6.056;2023-04-27T09:50:18;102187.81;;;20.27;36.56
60015;BME280;45867;52.480;6.056;2023-04-27T09:52:45;102166.22;;;19.71;34.04
60015;BME280;45867;52.480;6.056;2023-04-27T09:55:17;102175.28;;;20.64;35.95
60015;BME280;45867;52.480;6.056;2023-04-27T10:00:30;102182.34;;;20.46;34.85
60015;BME280;45867;52.480;6.056;2023-04-27T10:05:49;102161.72;;;18.77;35.24
60015;BME280;45867;52.480;6.056;2023-04-27T10:08:28;102160.25;;;18.42;35.28
60015;BME280;45867;52.480;6.056;2023-04-27T10:10:53;102161.41;;;17.78;33.77
60015;BME280;45867;52.480;6.056;2023-04-27T10:13:21;102164.50;;;18.67;36.04
60015;BME280;45867;52.480;6.056;2023-04-27T10:15:47;102142.91;;;18.53;36.76
60015;BME280;45867;52.480;6.056;2023-04-27T10:18:12;102142.63;;;18.98;34.80
60015;BME280;45867;52.480;6.056;2023-04-27T10:20:40;102136.06;;;19.23;34.29
60015;BME280;45867;52.480;6.056;2023-04-27T10:23:09;102142.97;;;19.62;31.81
60015;BME280;45867;52.480;6.056;2023-04-27T10:25:42;102131.91;;;19.30;31.44
60015;BME280;45867;52.480;6.056;2023-04-27T10:28:24;102138.56;;;20.68;32.55
60015;BME280;45867;52.480;6.056;2023-04-27T10:30:52;102138.16;;;21.87;30.11
60015;BME280;45867;52.480;6.056;2023-04-27T10:33:21;102149.97;;;22.39;30.23
60015;BME280;45867;52.480;6.056;2023-04-27T10:36:20;102159.44;;;21.88;29.61
60015;BME280;45867;52.480;6.056;2023-04-27T10:38:59;102146.72;;;22.95;30.23
60015;BME280;45867;52.480;6.056;2023-04-27T10:41:50;102140.41;;;23.73;28.46
60015;BME280;45867;52.480;6.056;2023-04-27T10:45:07;102144.44;;;24.05;27.22
60015;BME280;45867;52.480;6.056;2023-04-27T10:47:46;102149.84;;;23.40;27.21
60015;BME280;45867;52.480;6.056;2023-04-27T10:50:43;102150.47;;;24.10;28.25
60015;BME280;45867;52.480;6.056;2023-04-27T10:53:40;102159.53;;;23.59;29.07
60015;BME280;45867;52.480;6.056;2023-04-27T10:56:17;102132.03;;;22.52;27.21
60015;BME280;45867;52.480;6.056;2023-04-27T11:05:16;102136.84;;;24.78;27.00
60015;BME280;45867;52.480;6.056;2023-04-27T11:08:13;102123.28;;;24.57;26.00
60015;BME280;45867;52.480;6.056;2023-04-27T11:10:45;102126.19;;;24.94;26.67
60015;BME280;45867;52.480;6.056;2023-04-27T11:13:53;102124.00;;;24.88;26.78
60015;BME280;45867;52.480;6.056;2023-04-27T11:16:20;102121.38;;;25.12;26.02
60015;BME280;45867;52.480;6.056;2023-04-27T11:18:48;102138.59;;;24.74;26.28
60015;BME280;45867;52.480;6.056;2023-04-27T11:21:36;102112.97;;;24.51;27.19
60015;BME280;45867;52.480;6.056;2023-04-27T11:24:08;102104.88;;;24.84;26.75
60015;BME280;45867;52.480;6.056;2023-04-27T11:27:11;102107.88;;;24.70;27.02
60015;BME280;45867;52.480;6.056;2023-04-27T11:29:43;102108.16;;;24.77;26.55
60015;BME280;45867;52.480;6.056;2023-04-27T11:32:21;102110.94;;;25.23;27.48
60015;BME280;45867;52.480;6.056;2023-04-27T11:35:17;102103.41;;;23.94;26.69
60015;BME280;45867;52.480;6.056;2023-04-27T11:45:28;102111.41;;;22.82;28.59
60015;BME280;45867;52.480;6.056;2023-04-27T11:48:36;102104.38;;;22.47;27.65
60015;BME280;45867;52.480;6.056;2023-04-27T11:59:03;102089.91;;;24.15;27.40
60015;BME280;45867;52.480;6.056;2023-04-27T12:01:38;102081.97;;;23.80;26.14
60015;BME280;45867;52.480;6.056;2023-04-27T12:04:06;102099.53;;;23.57;28.42
60015;BME280;45867;52.480;6.056;2023-04-27T12:06:41;102100.34;;;23.48;27.98
60015;BME280;45867;52.480;6.056;2023-04-27T12:09:14;102095.66;;;22.93;28.53
60015;BME280;45867;52.480;6.056;2023-04-27T12:11:45;102092.31;;;22.88;27.48
60015;BME280;45867;52.480;6.056;2023-04-27T12:14:23;102090.47;;;22.13;28.19
60015;BME280;45867;52.480;6.056;2023-04-27T12:16:55;102081.03;;;22.86;28.88
60015;BME280;45867;52.480;6.056;2023-04-27T12:19:20;102102.22;;;23.65;28.94
60015;BME280;45867;52.480;6.056;2023-04-27T12:21:53;102097.50;;;24.22;27.98
60015;BME280;45867;52.480;6.056;2023-04-27T12:24:34;102086.00;;;23.65;28.32
60015;BME280;45867;52.480;6.056;2023-04-27T12:27:00;102084.38;;;22.82;28.54
60015;BME280;45867;52.480;6.056;2023-04-27T12:29:36;102095.38;;;23.77;27.22
60015;BME280;45867;52.480;6.056;2023-04-27T12:32:04;102091.16;;;22.19;29.02
60015;BME280;45867;52.480;6.056;2023-04-27T12:34:33;102093.72;;;21.53;28.90
60015;BME280;45867;52.480;6.056;2023-04-27T12:37:15;102071.28;;;21.66;28.59
60015;BME280;45867;52.480;6.056;2023-04-27T12:39:41;102084.97;;;22.36;28.98
60015;BME280;45867;52.480;6.056;2023-04-27T12:42:12;102069.56;;;22.45;27.81
60015;BME280;45867;52.480;6.056;2023-04-27T12:44:43;102077.34;;;21.49;29.38
60015;BME280;45867;52.480;6.056;2023-04-27T12:47:13;102069.56;;;21.39;29.14
60015;BME280;45867;52.480;6.056;2023-04-27T12:49:41;102062.50;;;22.09;30.22
60015;BME280;45867;52.480;6.056;2023-04-27T12:52:10;102073.91;;;22.81;27.61
60015;BME280;45867;52.480;6.056;2023-04-27T12:54:40;102082.59;;;21.77;27.95
60015;BME280;45867;52.480;6.056;2023-04-27T12:57:08;102050.97;;;21.38;28.86
60015;BME280;45867;52.480;6.056;2023-04-27T12:59:44;102076.84;;;21.79;29.20
60015;BME280;45867;52.480;6.056;2023-04-27T13:02:14;102052.66;;;20.16;28.66
60015;BME280;45867;52.480;6.056;2023-04-27T13:04:44;102082.69;;;20.73;30.33
60015;BME280;45867;52.480;6.056;2023-04-27T13:07:16;102069.44;;;21.31;30.72
60015;BME280;45867;52.480;6.056;2023-04-27T13:09:46;102045.09;;;21.76;30.20
60015;BME280;45867;52.480;6.056;2023-04-27T13:12:12;102052.09;;;20.92;30.06
60015;BME280;45867;52.480;6.056;2023-04-27T13:14:40;102049.69;;;19.90;31.61
60015;BME280;45867;52.480;6.056;2023-04-27T13:17:14;102056.72;;;21.22;30.59
60015;BME280;45867;52.480;6.056;2023-04-27T13:19:46;102059.09;;;19.46;30.72
60015;BME280;45867;52.480;6.056;2023-04-27T13:22:17;102061.22;;;17.68;33.33
60015;BME280;45867;52.480;6.056;2023-04-27T13:25:10;102065.53;;;18.79;34.00
60015;BME280;45867;52.480;6.056;2023-04-27T13:27:53;102064.63;;;19.68;31.95
60015;BME280;45867;52.480;6.056;2023-04-27T13:30:25;102044.91;;;19.73;32.12
60015;BME280;45867;52.480;6.056;2023-04-27T13:33:17;102064.38;;;20.48;32.10
60015;BME280;45867;52.480;6.056;2023-04-27T13:35:47;102053.03;;;20.73;30.71
60015;BME280;45867;52.480;6.056;2023-04-27T13:38:16;102029.38;;;19.84;30.76
60015;BME280;45867;52.480;6.056;2023-04-27T13:40:55;102022.69;;;20.45;32.32
60015;BME280;45867;52.480;6.056;2023-04-27T13:43:20;102016.75;;;20.34;31.73
60015;BME280;45867;52.480;6.056;2023-04-27T13:45:46;102020.63;;;19.78;31.51
60015;BME280;45867;52.480;6.056;2023-04-27T13:48:13;102012.59;;;19.32;32.42
60015;BME280;45867;52.480;6.056;2023-04-27T13:50:49;102010.66;;;18.85;33.62
60015;BME280;45867;52.480;6.056;2023-04-27T13:53:15;102009.47;;;19.24;33.70
60015;BME280;45867;52.480;6.056;2023-04-27T13:55:42;102006.59;;;19.21;33.16
60015;BME280;45867;52.480;6.056;2023-04-27T13:58:42;102032.31;;;19.08;33.28
60015;BME280;45867;52.480;6.056;2023-04-27T14:01:21;102022.16;;;19.51;34.11
60015;BME280;45867;52.480;6.056;2023-04-27T14:04:07;101994.13;;;18.40;33.29
60015;BME280;45867;52.480;6.056;2023-04-27T14:06:32;101994.19;;;18.35;34.84
60015;BME280;45867;52.480;6.056;2023-04-27T14:09:03;102011.66;;;18.52;33.72
60015;BME280;45867;52.480;6.056;2023-04-27T14:11:36;102001.81;;;18.28;34.83
60015;BME280;45867;52.480;6.056;2023-04-27T14:14:02;102001.47;;;17.92;35.05
60015;BME280;45867;52.480;6.056;2023-04-27T14:16:38;102001.38;;;18.40;35.46
60015;BME280;45867;52.480;6.056;2023-04-27T14:19:06;101995.91;;;18.07;34.71
60015;BME280;45867;52.480;6.056;2023-04-27T14:21:51;101996.16;;;18.49;35.41
60015;BME280;45867;52.480;6.056;2023-04-27T14:24:20;101986.63;;;18.00;34.84
60015;BME280;45867;52.480;6.056;2023-04-27T14:26:51;101982.06;;;18.38;36.82
60015;BME280;45867;52.480;6.056;2023-04-27T14:29:19;101991.69;;;17.77;35.94
60015;BME280;45867;52.480;6.056;2023-04-27T14:31:48;101980.78;;;17.44;35.98
60015;BME280;45867;52.480;6.056;2023-04-27T14:34:24;101973.06;;;16.79;36.05
60015;BME280;45867;52.480;6.056;2023-04-27T14:36:55;101973.34;;;17.12;36.82
60015;BME280;45867;52.480;6.056;2023-04-27T14:39:34;101973.50;;;17.21;36.75
60015;BME280;45867;52.480;6.056;2023-04-27T14:42:15;101992.84;;;17.18;36.53
60015;BME280;45867;52.480;6.056;2023-04-27T14:44:51;101975.22;;;16.77;38.41
60015;BME280;45867;52.480;6.056;2023-04-27T14:50:13;101973.28;;;15.99;38.20
60015;BME280;45867;52.480;6.056;2023-04-27T14:55:55;101961.03;;;15.83;39.67
60015;BME280;45867;52.480;6.056;2023-04-27T14:58:34;101965.25;;;16.04;38.99
60015;BME280;45867;52.480;6.056;2023-04-27T15:01:02;101986.66;;;15.99;39.05
60015;BME280;45867;52.480;6.056;2023-04-27T15:03:30;101985.72;;;16.24;40.30